Time;durP1;ratioP1;P1;durP2;ratioP2;P2;SDS_P1;SDS_P2;PMS_P1;PMS_P2;Temp;Humidity;BMP_temperature;BMP_pressure;BME280_temperature;BME280_humidity;BME280_pressure;Samples;Min_cycle;Max_cycle;Signal;HPM_P1;HPM_P2
2023/10/24 00:01:28;;;;;;;0.90;0.50;;;;;;;22.05;43.60;99427.25;4546485;28;20078;-58
2023/10/24 00:03:38;;;;;;;0.60;0.47;;;;;;;22.04;43.64;99425.63;4555404;28;20032;-58
2023/10/24 00:05:51;;;;;;;0.60;0.50;;;;;;;22.04;43.51;99429.31;4547275;28;20048;-58
2023/10/24 00:08:01;;;;;;;0.95;0.52;;;;;;;22.04;43.60;99423.56;4547677;28;20028;-58
2023/10/24 00:10:12;;;;;;;0.68;0.50;;;;;;;22.03;43.46;99430.53;4549100;28;20083;-58
2023/10/24 00:12:23;;;;;;;0.40;0.40;;;;;;;22.03;43.58;99421.09;4547512;28;20041;-56
2023/10/24 00:14:48;;;;;;;0.50;0.40;;;;;;;22.03;43.78;99415.34;4515685;28;20079;-58
2023/10/24 00:16:59;;;;;;;0.60;0.43;;;;;;;22.02;43.48;99417.38;4548005;28;20382;-58
2023/10/24 00:19:09;;;;;;;0.45;0.40;;;;;;;22.02;43.59;99413.72;4546658;28;20393;-58
2023/10/24 00:21:20;;;;;;;0.55;0.55;;;;;;;22.02;43.71;99426.00;4546988;28;20029;-57
2023/10/24 00:23:30;;;;;;;0.43;0.43;;;;;;;21.97;43.53;99411.22;4545932;28;20037;-57
2023/10/24 00:25:40;;;;;;;0.73;0.50;;;;;;;21.97;43.71;99406.31;4548209;28;20056;-57
2023/10/24 00:27:51;;;;;;;0.57;0.50;;;;;;;21.98;43.85;99401.34;4548666;28;20035;-56
2023/10/24 00:30:01;;;;;;;0.82;0.40;;;;;;;22.02;43.85;99420.25;4555645;28;21209;-58
2023/10/24 00:32:12;;;;;;;0.90;0.43;;;;;;;22.01;43.98;99412.88;4546592;28;20021;-58
2023/10/24 00:34:22;;;;;;;0.85;0.52;;;;;;;21.97;43.72;99400.56;4545246;28;20049;-58
2023/10/24 00:36:33;;;;;;;1.00;0.50;;;;;;;22.01;43.58;99412.88;4547919;28;20041;-58
2023/10/24 00:38:43;;;;;;;0.65;0.50;;;;;;;21.90;43.93;99389.03;4546599;28;20382;-57
2023/10/24 00:40:54;;;;;;;0.63;0.32;;;;;;;22.00;43.99;99405.50;4547710;28;20021;-58
2023/10/24 00:43:04;;;;;;;0.85;0.50;;;;;;;22.00;43.83;99414.13;4546673;28;20029;-58
2023/10/24 00:45:15;;;;;;;1.08;0.43;;;;;;;21.98;43.80;99404.22;4547911;28;20131;-58
2023/10/24 00:47:27;;;;;;;0.70;0.55;;;;;;;22.00;43.98;99411.25;4548099;28;20075;-58
2023/10/24 00:49:38;;;;;;;0.45;0.43;;;;;;;22.00;43.86;99405.50;4548688;28;20063;-58
2023/10/24 00:51:48;;;;;;;0.93;0.57;;;;;;;22.00;43.94;99405.50;4546631;28;20389;-58
2023/10/24 00:54:01;;;;;;;0.60;0.50;;;;;;;21.99;43.96;99403.81;4554381;28;20528;-58
2023/10/24 00:56:12;;;;;;;0.95;0.40;;;;;;;21.99;44.69;99392.34;4548931;28;20032;-58
2023/10/24 00:58:23;;;;;;;0.80;0.50;;;;;;;21.99;44.23;99392.34;4548488;28;20106;-58
2023/10/24 01:00:35;;;;;;;0.57;0.43;;;;;;;21.97;44.52;99394.81;4547931;28;20932;-56
2023/10/24 01:02:45;;;;;;;1.25;0.50;;;;;;;21.97;44.61;99386.19;4548143;28;20032;-56
2023/10/24 01:04:59;;;;;;;0.82;0.50;;;;;;;21.93;44.25;99382.47;4547510;28;20040;-58
2023/10/24 01:07:10;;;;;;;0.60;0.40;;;;;;;21.98;44.28;99395.63;4555532;28;20110;-58
2023/10/24 01:09:20;;;;;;;0.40;0.40;;;;;;;21.97;44.46;99397.69;4546524;28;20104;-58
2023/10/24 01:11:31;;;;;;;0.30;0.30;;;;;;;21.96;44.88;99401.78;4548189;28;20049;-57
2023/10/24 01:13:41;;;;;;;0.88;0.45;;;;;;;21.97;44.78;99397.69;4546767;28;20049;-57
2023/10/24 01:15:52;;;;;;;0.40;0.40;;;;;;;21.95;45.04;99388.66;4538735;28;20131;-58
2023/10/24 01:18:03;;;;;;;0.55;0.30;;;;;;;21.95;45.16;99391.50;4552127;28;20760;-56
2023/10/24 01:20:13;;;;;;;0.70;0.60;;;;;;;21.96;44.81;99389.47;4558056;28;20040;-58
2023/10/24 01:22:23;;;;;;;0.60;0.50;;;;;;;21.96;45.02;99390.28;4549855;28;20122;-59
2023/10/24 01:24:35;;;;;;;0.40;0.40;;;;;;;21.95;44.88;99394.38;4549198;28;20036;-56
2023/10/24 01:26:46;;;;;;;1.33;0.50;;;;;;;21.95;45.21;99393.56;4549568;28;20013;-58
2023/10/24 01:28:57;;;;;;;0.47;0.40;;;;;;;21.95;45.29;99394.38;4549030;28;20044;-58
2023/10/24 01:31:07;;;;;;;0.40;0.40;;;;;;;21.94;45.01;99397.66;4547928;28;29204;-58
2023/10/24 01:33:17;;;;;;;0.57;0.40;;;;;;;21.95;45.21;99394.38;4549535;28;20048;-58
2023/10/24 01:35:28;;;;;;;0.70;0.50;;;;;;;21.95;45.15;99405.06;4552049;28;20071;-57
2023/10/24 01:37:38;;;;;;;2.40;0.52;;;;;;;21.96;44.78;99407.50;4551585;28;20044;-58
2023/10/24 01:39:49;;;;;;;0.65;0.57;;;;;;;21.94;45.02;99400.53;4549553;28;20024;-58
2023/10/24 01:42:00;;;;;;;1.95;0.50;;;;;;;21.94;45.29;99421.50;4550107;28;24718;-58
2023/10/24 01:44:10;;;;;;;0.57;0.40;;;;;;;21.86;45.38;99416.94;4547828;28;20037;-58
2023/10/24 01:46:21;;;;;;;1.98;0.60;;;;;;;21.95;45.06;99433.78;4548429;28;20046;-58
2023/10/24 01:48:31;;;;;;;0.88;0.50;;;;;;;21.93;45.22;99421.88;4548723;28;20480;-58
2023/10/24 01:50:42;;;;;;;1.80;0.47;;;;;;;21.93;45.42;99414.06;4552417;28;20040;-57
2023/10/24 01:52:52;;;;;;;0.80;0.40;;;;;;;21.91;45.18;99401.34;4549726;28;20028;-57
2023/10/24 01:55:03;;;;;;;0.45;0.40;;;;;;;21.90;45.51;99383.28;4550611;28;20029;-58
2023/10/24 01:57:14;;;;;;;1.42;0.55;;;;;;;21.92;45.24;99388.63;4546532;28;20075;-58
2023/10/24 01:59:25;;;;;;;0.50;0.40;;;;;;;21.92;45.47;99391.50;4557429;28;20086;-56
2023/10/24 02:01:35;;;;;;;1.13;0.50;;;;;;;21.90;45.59;99374.66;4557666;28;20058;-57
2023/10/24 02:03:46;;;;;;;0.45;0.45;;;;;;;21.89;45.65;99370.16;4549859;28;20059;-58
2023/10/24 02:05:56;;;;;;;1.65;0.70;;;;;;;21.91;45.80;99387.00;4549922;28;20396;-57
2023/10/24 02:08:07;;;;;;;0.70;0.50;;;;;;;21.92;45.52;99380.00;4548127;28;20748;-58
2023/10/24 02:10:17;;;;;;;0.40;0.40;;;;;;;21.90;45.94;99376.72;4549894;28;20021;-58
2023/10/24 02:12:27;;;;;;;0.32;0.30;;;;;;;21.90;45.62;99380.41;4550921;28;20164;-58
2023/10/24 02:14:38;;;;;;;0.50;0.40;;;;;;;21.90;45.77;99377.53;4548930;28;20036;-58
2023/10/24 02:16:49;;;;;;;0.50;0.50;;;;;;;21.90;45.47;99376.72;4549617;28;20090;-58
2023/10/24 02:18:59;;;;;;;0.50;0.40;;;;;;;21.90;45.80;99371.78;4563851;28;20428;-58
2023/10/24 02:21:09;;;;;;;1.02;0.47;;;;;;;21.89;45.22;99370.16;4548742;28;20740;-58
2023/10/24 02:23:20;;;;;;;1.00;0.60;;;;;;;21.90;45.38;99382.44;4548921;28;20017;-57
2023/10/24 02:25:35;;;;;;;1.05;0.43;;;;;;;21.87;45.45;99377.53;4548887;28;20032;-58
2023/10/24 02:27:47;;;;;;;;;;;;;;;21.89;45.38;99373.03;4548061;28;20479;-57
2023/10/24 02:29:57;;;;;;;1.00;0.50;;;;;;;21.89;45.23;99364.41;4550193;28;19921;-57
2023/10/24 02:32:08;;;;;;;1.17;0.50;;;;;;;21.88;45.36;99359.06;4548891;28;20012;-58
2023/10/24 02:34:19;;;;;;;0.50;0.47;;;;;;;21.86;44.87;99356.63;4557163;28;20049;-58
2023/10/24 02:36:29;;;;;;;0.52;0.50;;;;;;;21.81;45.26;99344.69;4550098;28;20029;-58
2023/10/24 02:38:40;;;;;;;0.95;0.50;;;;;;;21.88;45.28;99334.03;4534329;28;20052;-58
2023/10/24 02:40:53;;;;;;;0.65;0.50;;;;;;;21.87;44.91;99328.69;4550138;28;20037;-58
2023/10/24 02:43:04;;;;;;;0.68;0.40;;;;;;;21.86;44.68;99338.53;4548508;28;20124;-58
2023/10/24 02:45:14;;;;;;;1.30;0.75;;;;;;;21.86;45.04;99342.25;4556318;28;20021;-56
2023/10/24 02:47:25;;;;;;;0.90;0.52;;;;;;;21.85;45.16;99348.41;4546928;28;20052;-58
2023/10/24 02:49:35;;;;;;;0.60;0.60;;;;;;;21.79;45.55;99342.22;4545936;28;20122;-57
2023/10/24 02:51:46;;;;;;;0.77;0.50;;;;;;;21.86;45.23;99348.00;4557182;28;20114;-58
2023/10/24 02:53:56;;;;;;;0.95;0.60;;;;;;;21.83;45.13;99354.56;4556458;28;20027;-58
2023/10/24 02:56:07;;;;;;;0.45;0.40;;;;;;;21.85;45.40;99352.06;4563235;28;20060;-58
2023/10/24 02:58:18;;;;;;;0.73;0.50;;;;;;;21.84;45.17;99359.06;4548183;28;20120;-58
2023/10/24 03:00:29;;;;;;;0.82;0.57;;;;;;;21.78;45.20;99352.06;4549579;28;20098;-58
2023/10/24 03:02:40;;;;;;;1.05;0.50;;;;;;;21.80;45.37;99361.09;4548663;28;20131;-58
2023/10/24 03:04:51;;;;;;;0.75;0.60;;;;;;;21.84;45.00;99361.94;4549593;28;20037;-58
2023/10/24 03:07:02;;;;;;;0.60;0.45;;;;;;;21.84;45.20;99356.19;4556575;28;20415;-58
2023/10/24 03:09:12;;;;;;;1.13;0.60;;;;;;;21.80;45.53;99343.03;4548497;28;20123;-58
2023/10/24 03:11:23;;;;;;;0.98;0.60;;;;;;;21.84;45.41;99366.84;4547078;28;20440;-58
2023/10/24 03:13:34;;;;;;;1.77;0.60;;;;;;;21.84;45.48;99381.22;4547430;28;20568;-58
2023/10/24 03:15:44;;;;;;;0.63;0.50;;;;;;;21.83;45.56;99379.56;4548490;28;20084;-58
2023/10/24 03:17:55;;;;;;;0.68;0.40;;;;;;;21.84;45.07;99386.94;4549536;28;20033;-58
2023/10/24 03:20:06;;;;;;;1.23;0.47;;;;;;;21.79;45.21;99373.81;4548816;28;20028;-58
2023/10/24 03:22:16;;;;;;;1.20;0.65;;;;;;;21.83;45.17;99370.97;4539573;28;20197;-58
2023/10/24 03:24:28;;;;;;;0.73;0.50;;;;;;;21.79;45.25;99364.34;4546963;28;20032;-58
2023/10/24 03:26:39;;;;;;;0.60;0.60;;;;;;;21.83;45.28;99370.97;4549220;28;20021;-57
2023/10/24 03:28:49;;;;;;;0.93;0.52;;;;;;;21.82;45.09;99370.13;4549642;28;20036;-58
2023/10/24 03:31:04;;;;;;;1.00;0.60;;;;;;;21.83;45.21;99368.09;4549271;28;20073;-58
2023/10/24 03:33:14;;;;;;;0.70;0.52;;;;;;;21.82;45.17;99375.88;4547489;28;20052;-55
2023/10/24 03:35:24;;;;;;;0.60;0.57;;;;;;;21.81;44.87;99367.66;4555834;28;20048;-58
2023/10/24 03:37:35;;;;;;;0.88;0.77;;;;;;;21.80;44.76;99363.97;4547596;28;26321;-57
2023/10/24 03:39:46;;;;;;;0.88;0.70;;;;;;;21.81;45.21;99368.50;4548614;28;20092;-58
2023/10/24 03:41:56;;;;;;;0.50;0.50;;;;;;;21.80;44.87;99355.34;4548547;28;20025;-57
2023/10/24 03:44:07;;;;;;;0.85;0.60;;;;;;;21.80;45.30;99361.09;4548327;28;20025;-58
2023/10/24 03:46:17;;;;;;;0.77;0.60;;;;;;;21.78;45.49;99357.81;4548875;28;20028;-58
2023/10/24 03:48:28;;;;;;;0.82;0.50;;;;;;;21.81;45.37;99361.91;4549574;28;20048;-58
2023/10/24 03:50:39;;;;;;;0.57;0.50;;;;;;;21.81;45.25;99357.00;4547783;28;24997;-56
2023/10/24 03:52:49;;;;;;;0.90;0.60;;;;;;;21.79;45.23;99359.44;4546168;28;20087;-58
2023/10/24 03:55:00;;;;;;;0.50;0.50;;;;;;;21.79;44.97;99353.69;4546778;28;27666;-58
2023/10/24 03:57:10;;;;;;;0.75;0.47;;;;;;;21.80;45.19;99348.78;4545670;28;20032;-58
2023/10/24 03:59:21;;;;;;;1.17;0.50;;;;;;;21.79;45.44;99355.75;4547185;28;20075;-57
2023/10/24 04:01:31;;;;;;;0.90;0.70;;;;;;;21.79;45.47;99362.31;4547124;28;20060;-58
2023/10/24 04:03:41;;;;;;;0.75;0.60;;;;;;;21.78;45.41;99363.56;4546314;28;20075;-58
2023/10/24 04:05:52;;;;;;;0.95;0.60;;;;;;;21.77;45.18;99361.91;4548013;28;20048;-59
2023/10/24 04:08:03;;;;;;;0.50;0.50;;;;;;;21.78;45.39;99366.44;4548500;28;20117;-56
2023/10/24 04:10:15;;;;;;;0.57;0.50;;;;;;;21.78;45.29;99368.47;4546579;28;20037;-58
2023/10/24 04:12:25;;;;;;;0.50;0.50;;;;;;;21.77;45.18;99386.94;4546624;28;20033;-58
2023/10/24 04:14:36;;;;;;;0.75;0.60;;;;;;;21.77;45.57;99379.13;4546219;28;20033;-58
2023/10/24 04:16:46;;;;;;;0.82;0.60;;;;;;;21.79;45.42;99387.34;4547309;28;20071;-58
2023/10/24 04:18:56;;;;;;;0.80;0.60;;;;;;;21.78;45.29;99382.84;4547709;28;20501;-58
2023/10/24 04:21:07;;;;;;;0.40;0.40;;;;;;;21.79;45.42;99381.59;4548138;28;20036;-59
2023/10/24 04:23:17;;;;;;;0.50;0.50;;;;;;;21.77;45.09;99379.13;4545501;28;20022;-58
2023/10/24 04:25:29;;;;;;;0.70;0.50;;;;;;;21.76;45.42;99374.63;4546726;28;20021;-57
2023/10/24 04:27:40;;;;;;;1.00;0.50;;;;;;;21.74;45.65;99368.41;4547351;28;20111;-58
2023/10/24 04:29:50;;;;;;;1.48;0.60;;;;;;;21.76;45.60;99363.13;4546941;28;21137;-56
2023/10/24 04:32:01;;;;;;;0.73;0.57;;;;;;;21.76;45.68;99366.00;4546686;28;20037;-58
2023/10/24 04:34:11;;;;;;;0.55;0.50;;;;;;;21.76;45.49;99365.16;4547791;28;20036;-58
2023/10/24 04:36:21;;;;;;;0.82;0.70;;;;;;;21.76;45.29;99373.78;4546471;28;20331;-56
2023/10/24 04:38:32;;;;;;;0.68;0.60;;;;;;;21.74;45.46;99376.22;4546669;28;20060;-58
2023/10/24 04:40:42;;;;;;;0.85;0.52;;;;;;;21.75;46.00;99393.09;4547561;28;20047;-58
2023/10/24 04:42:53;;;;;;;0.40;0.40;;;;;;;21.74;45.71;99379.91;4546890;28;20056;-56
2023/10/24 04:45:04;;;;;;;0.50;0.47;;;;;;;21.75;46.05;99377.88;4554477;28;20852;-58
2023/10/24 04:47:14;;;;;;;0.70;0.60;;;;;;;21.74;45.98;99368.41;4546873;28;20115;-58
2023/10/24 04:49:24;;;;;;;1.17;0.60;;;;;;;21.74;45.46;99368.41;4546171;28;20481;-58
2023/10/24 04:51:35;;;;;;;1.42;0.60;;;;;;;21.74;45.41;99364.75;4549580;28;22295;-58
2023/10/24 04:53:45;;;;;;;1.10;0.57;;;;;;;21.74;45.27;99367.63;4558065;28;20045;-58
2023/10/24 04:55:56;;;;;;;0.60;0.52;;;;;;;21.74;45.53;99374.16;4549503;28;20037;-58
2023/10/24 04:58:06;;;;;;;0.55;0.50;;;;;;;21.73;45.56;99386.06;4549448;28;21043;-58
2023/10/24 05:00:17;;;;;;;0.55;0.55;;;;;;;21.74;45.15;99379.09;4550105;28;20075;-58
2023/10/24 05:02:27;;;;;;;0.77;0.70;;;;;;;21.73;45.21;99368.81;4549077;28;20085;-58
2023/10/24 05:04:38;;;;;;;0.93;0.50;;;;;;;21.72;45.20;99362.25;4551619;28;20509;-58
2023/10/24 05:06:48;;;;;;;1.00;0.60;;;;;;;21.73;45.18;99363.91;4551011;28;21025;-58
2023/10/24 05:08:59;;;;;;;1.45;0.60;;;;;;;21.72;45.43;99370.88;4549701;28;20037;-58
2023/10/24 05:11:10;;;;;;;0.98;0.60;;;;;;;21.72;45.12;99364.31;4550074;28;20051;-57
2023/10/24 05:13:21;;;;;;;0.98;0.60;;;;;;;21.72;45.02;99356.50;4547751;28;20051;-58
2023/10/24 05:15:32;;;;;;;0.50;0.50;;;;;;;21.71;45.53;99360.63;4551112;28;20396;-58
2023/10/24 05:17:42;;;;;;;0.55;0.50;;;;;;;21.71;45.67;99357.75;4550192;28;20043;-57
2023/10/24 05:19:52;;;;;;;0.40;0.40;;;;;;;21.71;45.10;99352.00;4550115;28;20095;-58
2023/10/24 05:22:03;;;;;;;0.40;0.40;;;;;;;21.71;45.25;99349.13;4550377;28;20017;-58
2023/10/24 05:24:13;;;;;;;0.82;0.50;;;;;;;21.71;45.48;99346.25;4551794;28;20041;-58
2023/10/24 05:26:23;;;;;;;0.55;0.50;;;;;;;21.70;45.61;99333.13;4551595;28;20070;-59
2023/10/24 05:28:34;;;;;;;1.27;0.50;;;;;;;21.70;45.53;99330.25;4549656;28;20048;-58
2023/10/24 05:30:45;;;;;;;0.85;0.50;;;;;;;21.70;45.20;99324.53;4548859;28;20037;-58
2023/10/24 05:32:58;;;;;;;0.40;0.40;;;;;;;21.70;45.61;99326.56;4548278;28;20020;-58
2023/10/24 05:35:08;;;;;;;0.55;0.50;;;;;;;21.64;45.15;99311.78;4549943;28;20029;-57
2023/10/24 05:37:19;;;;;;;0.40;0.40;;;;;;;21.65;45.15;99319.16;4550129;28;20025;-58
2023/10/24 05:39:30;;;;;;;0.65;0.40;;;;;;;21.68;45.29;99326.97;4550482;28;20025;-58
2023/10/24 05:41:40;;;;;;;0.40;0.40;;;;;;;21.69;45.20;99324.94;4548908;28;20689;-58
2023/10/24 05:43:51;;;;;;;0.40;0.40;;;;;;;21.68;45.22;99324.09;4548794;28;21010;-58
2023/10/24 05:46:03;;;;;;;0.82;0.43;;;;;;;21.65;45.29;99324.06;4550639;28;20029;-58
2023/10/24 05:48:13;;;;;;;0.40;0.40;;;;;;;21.68;45.10;99329.84;4550011;28;20785;-58
2023/10/24 05:50:24;;;;;;;0.43;0.40;;;;;;;21.67;45.16;99331.06;4549232;28;26951;-58
2023/10/24 05:52:34;;;;;;;0.50;0.40;;;;;;;21.67;45.21;99336.81;4549797;28;20497;-58
2023/10/24 05:54:44;;;;;;;0.30;0.30;;;;;;;21.67;45.17;99333.94;4550041;28;20497;-58
2023/10/24 05:56:55;;;;;;;0.32;0.32;;;;;;;21.67;45.23;99339.69;4551326;28;20029;-58
2023/10/24 05:59:05;;;;;;;0.30;0.30;;;;;;;21.68;45.31;99340.50;4549860;28;20493;-57
2023/10/24 06:01:16;;;;;;;1.00;0.40;;;;;;;21.67;45.05;99347.47;4547304;28;20143;-58
2023/10/24 06:03:27;;;;;;;0.40;0.40;;;;;;;21.66;45.48;99343.78;4549768;28;20131;-58
2023/10/24 06:05:37;;;;;;;0.73;0.40;;;;;;;21.67;45.39;99344.59;4548048;28;20017;-57
2023/10/24 06:07:47;;;;;;;0.55;0.40;;;;;;;21.66;45.38;99338.03;4549084;28;20078;-58
2023/10/24 06:09:58;;;;;;;0.47;0.43;;;;;;;21.67;45.44;99338.88;4549363;28;21580;-58
2023/10/24 06:12:08;;;;;;;0.40;0.40;;;;;;;21.65;45.69;99347.88;4549101;28;20068;-58
2023/10/24 06:14:19;;;;;;;0.40;0.40;;;;;;;21.64;45.48;99346.25;4548233;28;20045;-58
2023/10/24 06:16:30;;;;;;;0.35;0.35;;;;;;;21.66;45.73;99345.84;4547715;28;20776;-58
2023/10/24 06:18:40;;;;;;;0.55;0.47;;;;;;;21.64;46.18;99340.50;4547809;28;20037;-58
2023/10/24 06:20:50;;;;;;;0.40;0.40;;;;;;;21.66;46.08;99348.72;4548683;28;20028;-57
2023/10/24 06:23:03;;;;;;;0.45;0.43;;;;;;;21.65;45.83;99342.13;4548381;28;20067;-58
2023/10/24 06:25:13;;;;;;;0.40;0.40;;;;;;;21.64;46.20;99329.03;4556717;28;20025;-58
2023/10/24 06:27:23;;;;;;;0.40;0.40;;;;;;;21.64;46.18;99334.75;4548579;28;20579;-57
2023/10/24 06:29:34;;;;;;;0.45;0.40;;;;;;;21.64;46.01;99340.50;4547608;28;20044;-58
2023/10/24 06:31:44;;;;;;;0.30;0.30;;;;;;;21.65;46.65;99335.56;4548210;28;20665;-58
2023/10/24 06:33:55;;;;;;;0.60;0.50;;;;;;;21.64;46.34;99329.03;4548397;28;20476;-56
2023/10/24 06:36:06;;;;;;;0.40;0.40;;;;;;;21.64;45.90;99317.53;4549777;28;20122;-56
2023/10/24 06:38:17;;;;;;;0.40;0.38;;;;;;;21.64;46.29;99320.41;4547556;28;20040;-58
2023/10/24 06:40:27;;;;;;;0.43;0.40;;;;;;;21.63;46.04;99333.09;4548068;28;20029;-56
2023/10/24 06:42:38;;;;;;;0.47;0.40;;;;;;;21.64;45.90;99329.03;4548462;28;20033;-58
2023/10/24 06:44:49;;;;;;;0.60;0.52;;;;;;;21.64;46.38;99331.06;4548080;28;20045;-58
2023/10/24 06:46:59;;;;;;;1.02;0.50;;;;;;;21.63;46.50;99338.00;4549459;28;20021;-54
2023/10/24 06:49:09;;;;;;;0.60;0.50;;;;;;;21.62;46.22;99330.63;4549568;28;20386;-54
2023/10/24 06:51:20;;;;;;;0.57;0.50;;;;;;;21.58;46.65;99324.88;4548111;28;20586;-56
2023/10/24 06:53:30;;;;;;;0.60;0.40;;;;;;;21.60;46.34;99328.16;4547543;28;20041;-57
2023/10/24 06:55:41;;;;;;;0.75;0.50;;;;;;;21.57;46.51;99316.66;4549301;28;20158;-56
2023/10/24 06:57:51;;;;;;;0.40;0.40;;;;;;;21.63;46.53;99317.91;4548435;28;20124;-56
2023/10/24 07:00:02;;;;;;;0.50;0.50;;;;;;;21.62;46.55;99328.59;4548463;28;20083;-56
2023/10/24 07:02:13;;;;;;;1.50;0.50;;;;;;;21.62;46.58;99324.88;4550764;28;20032;-57
2023/10/24 07:04:23;;;;;;;0.88;0.50;;;;;;;21.62;46.88;99325.72;4547354;28;20505;-57
2023/10/24 07:06:33;;;;;;;0.40;0.40;;;;;;;21.62;47.04;99330.63;4548641;28;20558;-54
2023/10/24 07:08:46;;;;;;;1.05;0.40;;;;;;;21.62;46.85;99336.38;4546174;28;20782;-56
2023/10/24 07:10:57;;;;;;;0.40;0.40;;;;;;;21.61;46.57;99335.53;4556604;28;20024;-56
2023/10/24 07:13:08;;;;;;;1.25;0.40;;;;;;;21.60;46.83;99344.56;4547050;28;20032;-55
2023/10/24 07:15:18;;;;;;;0.93;0.30;;;;;;;21.62;46.88;99359.34;4548013;28;20030;-57
2023/10/24 07:17:30;;;;;;;0.30;0.30;;;;;;;21.61;46.35;99358.50;4549062;28;20029;-58
2023/10/24 07:19:40;;;;;;;0.65;0.50;;;;;;;21.62;46.78;99347.88;4546280;28;20071;-57
2023/10/24 07:21:50;;;;;;;0.95;0.40;;;;;;;21.60;46.75;99351.13;4546475;28;20033;-57
2023/10/24 07:24:01;;;;;;;0.88;0.50;;;;;;;21.61;46.48;99351.97;4549828;28;20041;-57
2023/10/24 07:26:12;;;;;;;0.40;0.40;;;;;;;21.53;46.31;99335.94;4547814;28;20033;-57
2023/10/24 07:28:22;;;;;;;0.82;0.40;;;;;;;21.56;46.24;99329.38;4546730;28;20029;-57
2023/10/24 07:30:33;;;;;;;0.50;0.50;;;;;;;21.60;46.34;99336.78;4547162;28;20028;-58
2023/10/24 07:32:43;;;;;;;0.75;0.43;;;;;;;21.61;46.04;99346.22;4548058;28;20112;-57
2023/10/24 07:34:56;;;;;;;1.10;0.40;;;;;;;21.60;45.98;99350.31;4548122;28;20123;-57
2023/10/24 07:37:07;;;;;;;0.40;0.40;;;;;;;21.51;46.31;99327.72;4549457;28;20036;-57
2023/10/24 07:39:17;;;;;;;0.57;0.40;;;;;;;21.60;46.28;99342.53;4549172;28;20039;-57
2023/10/24 07:41:27;;;;;;;0.38;0.30;;;;;;;21.59;45.54;99338.03;4548978;28;20037;-58
2023/10/24 07:43:38;;;;;;;1.00;0.40;;;;;;;21.59;45.65;99342.94;4547216;28;20084;-58
2023/10/24 07:45:53;;;;;;;0.38;0.38;;;;;;;21.61;45.97;99347.03;4547728;28;20128;-58
2023/10/24 07:48:05;;;;;;;0.30;0.30;;;;;;;21.60;46.06;99354.00;4546809;28;20067;-58
2023/10/24 07:50:15;;;;;;;0.60;0.50;;;;;;;21.53;46.28;99336.75;4548504;28;20041;-58
2023/10/24 07:52:25;;;;;;;0.30;0.30;;;;;;;21.60;45.82;99350.31;4545167;28;20029;-57
2023/10/24 07:54:36;;;;;;;0.45;0.30;;;;;;;21.57;46.24;99349.06;4546810;28;20045;-57
2023/10/24 07:56:46;;;;;;;0.77;0.35;;;;;;;21.58;46.06;99347.84;4546452;28;20143;-58
2023/10/24 07:58:57;;;;;;;0.30;0.30;;;;;;;21.60;46.60;99341.69;4548314;28;20036;-58
2023/10/24 08:01:08;;;;;;;0.38;0.38;;;;;;;21.55;46.38;99336.38;4548226;28;20082;-55
2023/10/24 08:03:18;;;;;;;0.73;0.38;;;;;;;21.59;45.96;99355.25;4547905;28;21740;-57
2023/10/24 08:05:29;;;;;;;0.75;0.20;;;;;;;21.49;46.15;99338.78;4547229;28;20064;-58
2023/10/24 08:07:39;;;;;;;0.30;0.30;;;;;;;21.58;45.95;99347.84;4547456;28;20366;-57
2023/10/24 08:09:50;;;;;;;0.30;0.30;;;;;;;21.58;45.93;99342.09;4547600;28;20040;-58
2023/10/24 08:12:00;;;;;;;0.30;0.30;;;;;;;21.58;46.21;99342.09;4547308;28;20079;-57
2023/10/24 08:14:13;;;;;;;0.38;0.38;;;;;;;21.58;46.11;99336.34;4548164;28;20042;-58
2023/10/24 08:16:23;;;;;;;1.25;0.35;;;;;;;21.53;46.12;99335.94;4548937;28;20083;-58
2023/10/24 08:18:37;;;;;;;0.32;0.30;;;;;;;21.52;46.31;99329.38;4547317;28;20091;-57
2023/10/24 08:20:48;;;;;;;0.30;0.30;;;;;;;21.57;46.64;99346.22;4563123;28;20036;-58
2023/10/24 08:22:58;;;;;;;0.30;0.30;;;;;;;21.58;46.47;99347.03;4546262;28;20397;-56
2023/10/24 08:25:08;;;;;;;0.30;0.30;;;;;;;21.56;46.36;99347.44;4546321;28;20033;-58
2023/10/24 08:27:19;;;;;;;0.57;0.30;;;;;;;21.58;46.46;99353.59;4547527;28;20045;-57
2023/10/24 08:29:29;;;;;;;0.52;0.30;;;;;;;21.58;46.25;99347.03;4547273;28;20024;-56
2023/10/24 08:31:40;;;;;;;0.50;0.50;;;;;;;21.58;45.99;99364.28;4545481;28;20037;-56
2023/10/24 08:33:50;;;;;;;0.40;0.40;;;;;;;21.58;46.35;99362.19;4547943;28;20049;-57
2023/10/24 08:36:00;;;;;;;0.40;0.40;;;;;;;21.57;46.54;99366.31;4547926;28;20021;-56
2023/10/24 08:38:11;;;;;;;0.68;0.50;;;;;;;21.58;46.13;99372.88;4548014;28;20063;-57
2023/10/24 08:40:22;;;;;;;0.40;0.40;;;;;;;21.58;46.24;99375.75;4546674;28;20068;-57
2023/10/24 08:42:33;;;;;;;0.60;0.50;;;;;;;21.57;46.43;99383.53;4547518;28;20021;-57
2023/10/24 08:44:45;;;;;;;0.88;0.35;;;;;;;21.58;46.14;99387.25;4548554;28;20110;-57
2023/10/24 08:46:55;;;;;;;0.30;0.30;;;;;;;21.56;46.28;99384.78;4546429;28;20044;-57
2023/10/24 08:49:06;;;;;;;0.30;0.30;;;;;;;21.57;46.01;99386.41;4546753;28;20024;-57
2023/10/24 08:51:17;;;;;;;0.50;0.45;;;;;;;21.56;45.69;99390.50;4546971;28;20056;-57
2023/10/24 08:53:27;;;;;;;0.52;0.50;;;;;;;21.56;45.88;99384.78;4545373;28;20133;-57
2023/10/24 08:55:42;;;;;;;0.52;0.52;;;;;;;21.49;45.87;99375.28;4546347;28;20048;-57
2023/10/24 08:57:54;;;;;;;0.70;0.60;;;;;;;21.57;45.60;99385.56;4545807;28;21684;-57
2023/10/24 09:00:08;;;;;;;0.30;0.30;;;;;;;21.55;45.49;99383.09;4554572;28;20017;-57
2023/10/24 09:02:19;;;;;;;0.32;0.32;;;;;;;21.55;45.38;99393.78;4546473;28;20063;-57
2023/10/24 09:04:31;;;;;;;0.30;0.30;;;;;;;21.55;45.86;99397.47;4548584;28;20135;-57
2023/10/24 09:06:41;;;;;;;0.30;0.30;;;;;;;21.55;45.02;99400.34;4536970;28;20032;-57
2023/10/24 09:08:52;;;;;;;0.50;0.50;;;;;;;21.55;45.30;99403.19;4546751;28;20777;-58
2023/10/24 09:11:02;;;;;;;0.30;0.30;;;;;;;21.52;44.69;99383.91;4544504;28;20141;-57
2023/10/24 09:13:13;;;;;;;0.20;0.20;;;;;;;21.56;45.06;99383.94;4544685;28;20105;-57
2023/10/24 09:15:23;;;;;;;0.45;0.40;;;;;;;21.54;44.61;99390.09;4547399;28;20053;-57
2023/10/24 09:17:33;;;;;;;0.35;0.35;;;;;;;21.55;44.58;99393.78;4547682;28;20131;-57
2023/10/24 09:19:44;;;;;;;0.70;0.30;;;;;;;21.55;44.25;99394.59;4547020;28;20033;-57
2023/10/24 09:21:56;;;;;;;0.60;0.50;;;;;;;21.54;44.28;99395.81;4548210;28;20589;-56
2023/10/24 09:24:12;;;;;;;0.40;0.30;;;;;;;21.54;44.46;99397.88;4554353;28;20075;-57
2023/10/24 09:26:22;;;;;;;0.50;0.50;;;;;;;21.48;44.25;99383.09;4546602;28;20033;-57
2023/10/24 09:28:33;;;;;;;0.30;0.30;;;;;;;21.53;43.78;99371.19;4546457;28;21006;-57
2023/10/24 09:30:45;;;;;;;0.30;0.30;;;;;;;21.54;43.96;99367.13;4556339;28;20020;-57
2023/10/24 09:32:55;;;;;;;0.20;0.20;;;;;;;21.53;44.05;99362.59;4545822;28;20033;-57
2023/10/24 09:35:06;;;;;;;0.30;0.30;;;;;;;21.53;43.86;99365.44;4547050;28;20065;-58
2023/10/24 09:37:16;;;;;;;0.40;0.20;;;;;;;21.52;43.97;99363.81;4545970;28;20087;-57
2023/10/24 09:39:27;;;;;;;0.32;0.28;;;;;;;21.51;44.25;99361.34;4552827;28;20021;-57
2023/10/24 09:41:47;;;;;;;0.28;0.28;;;;;;;21.54;43.85;99378.59;4549264;28;20044;-57
2023/10/24 09:44:01;;;;;;;0.30;0.30;;;;;;;21.53;43.94;99374.06;4549724;28;20037;-57
2023/10/24 09:46:14;;;;;;;0.50;0.50;;;;;;;21.53;43.80;99365.44;4547452;28;20029;-56
2023/10/24 09:48:26;;;;;;;0.40;0.40;;;;;;;21.48;43.85;99351.50;4548267;28;20040;-57
2023/10/24 09:50:41;;;;;;;0.82;0.57;;;;;;;21.53;43.90;99356.03;4557813;28;20049;-58
2023/10/24 09:52:52;;;;;;;0.73;0.38;;;;;;;21.51;43.93;99342.09;4549132;28;20012;-58
2023/10/24 09:55:03;;;;;;;1.00;0.45;;;;;;;21.53;43.71;99345.34;4547231;28;20049;-58
2023/10/24 09:57:18;;;;;;;0.95;0.30;;;;;;;21.50;43.95;99337.56;4549082;28;20037;-56
2023/10/24 09:59:29;;;;;;;0.30;0.30;;;;;;;21.52;43.67;99334.28;4549190;28;20032;-57
2023/10/24 10:01:41;;;;;;;0.30;0.30;;;;;;;21.48;43.81;99325.66;4549717;28;20630;-56
2023/10/24 10:03:53;;;;;;;0.38;0.30;;;;;;;21.53;44.26;99336.75;4547900;28;20051;-58
2023/10/24 10:06:08;;;;;;;0.30;0.30;;;;;;;21.52;44.15;99337.16;4548257;28;20536;-58
2023/10/24 10:08:21;;;;;;;0.20;0.20;;;;;;;21.53;43.84;99345.34;4548431;28;20041;-57
2023/10/24 10:10:34;;;;;;;0.10;0.10;;;;;;;21.54;43.61;99361.38;4548171;28;20017;-58
2023/10/24 10:12:45;;;;;;;0.22;0.20;;;;;;;21.53;43.56;99371.19;4548857;28;20041;-57
2023/10/24 10:15:11;;;;;;;0.20;0.20;;;;;;;21.54;43.62;99367.13;4550017;28;20052;-57
2023/10/24 10:17:33;;;;;;;0.90;0.28;;;;;;;21.53;44.00;99359.72;4548217;28;20119;-57